createdAt,value
2018-08-09T00:01:33.068Z,68.10
2018-08-09T00:04:02.049Z,68.60
2018-08-09T00:06:31.335Z,68.50
2018-08-09T00:09:02.396Z,68.80
2018-08-09T00:11:31.419Z,69.40
2018-08-09T00:14:00.473Z,69.70
2018-08-09T00:16:29.491Z,69.20
2018-08-09T00:18:59.674Z,68.70
2018-08-09T00:21:28.953Z,69.30
2018-08-09T00:23:58.091Z,69.40
2018-08-09T00:26:27.645Z,69.80
2018-08-09T00:28:56.850Z,69.70
2018-08-09T00:31:26.130Z,69.90
2018-08-09T00:33:55.152Z,70.30
2018-08-09T00:36:24.176Z,70.60
2018-08-09T00:38:54.433Z,70.80
2018-08-09T00:41:23.428Z,71.00
2018-08-09T00:43:53.679Z,71.10
2018-08-09T00:46:22.729Z,71.60
2018-08-09T00:48:51.771Z,71.50
2018-08-09T00:51:20.750Z,71.90
2018-08-09T00:53:49.820Z,71.80
2018-08-09T00:56:18.876Z,71.90
2018-08-09T00:58:47.896Z,71.90
2018-08-09T01:01:17.387Z,72.00
2018-08-09T01:03:46.458Z,72.50
2018-08-09T01:06:15.565Z,72.40
2018-08-09T01:08:51.879Z,72.90
2018-08-09T01:11:22.025Z,71.70
2018-08-09T01:13:51.147Z,72.00
2018-08-09T01:16:20.129Z,72.00
2018-08-09T01:18:49.156Z,72.10
2018-08-09T01:21:18.240Z,72.00
2018-08-09T01:23:47.849Z,71.80
2018-08-09T01:26:16.869Z,72.10
2018-08-09T01:28:45.913Z,72.00
2018-08-09T01:31:19.740Z,71.80
2018-08-09T01:33:55.437Z,71.60
2018-08-09T01:36:27.221Z,72.00
2018-08-09T01:38:56.429Z,71.70
2018-08-09T01:41:25.818Z,71.10
2018-08-09T01:43:58.422Z,71.10
2018-08-09T01:46:27.816Z,71.20
2018-08-09T01:48:58.518Z,71.70
2018-08-09T01:51:28.241Z,71.60
2018-08-09T01:53:57.449Z,71.50
2018-08-09T01:56:26.480Z,71.20
2018-08-09T01:58:59.680Z,71.60
2018-08-09T02:01:29.060Z,71.50
2018-08-09T02:03:58.065Z,72.00
2018-08-09T02:06:27.065Z,72.30
2018-08-09T02:09:00.344Z,72.70
2018-08-09T02:11:29.360Z,72.80
2018-08-09T02:13:58.350Z,72.60
2018-08-09T02:16:27.391Z,72.40
2018-08-09T02:18:56.806Z,72.10
2018-08-09T02:21:25.833Z,72.00
2018-08-09T02:23:54.824Z,71.90
2018-08-09T02:26:24.146Z,71.90
2018-08-09T02:28:53.151Z,72.10
2018-08-09T02:31:22.178Z,72.30
2018-08-09T02:33:51.206Z,72.70
2018-08-09T02:36:20.254Z,73.00
2018-08-09T02:38:49.320Z,73.00
2018-08-09T02:41:18.361Z,72.70
2018-08-09T02:43:48.918Z,72.70
2018-08-09T02:46:18.058Z,72.70
2018-08-09T02:48:47.065Z,73.10
2018-08-09T02:51:16.371Z,73.20
2018-08-09T02:53:47.191Z,73.90
2018-08-09T02:56:16.342Z,74.40
2018-08-09T02:58:45.446Z,74.70
2018-08-09T03:01:14.467Z,74.60
2018-08-09T03:03:43.497Z,74.40
2018-08-09T03:06:12.526Z,75.00
2018-08-09T03:08:41.541Z,75.30
2018-08-09T03:11:10.821Z,74.90
2018-08-09T03:13:39.985Z,75.00
2018-08-09T03:16:08.984Z,75.20
2018-08-09T03:18:38.020Z,75.40
2018-08-09T03:21:07.161Z,75.40
2018-08-09T03:23:38.212Z,75.00
2018-08-09T03:26:07.240Z,74.50
2018-08-09T03:28:36.290Z,74.00
2018-08-09T03:31:05.380Z,73.70
2018-08-09T03:33:34.394Z,73.20
2018-08-09T03:36:04.981Z,73.10
2018-08-09T03:38:34.040Z,73.50
2018-08-09T03:41:03.043Z,73.30
2018-08-09T03:43:32.084Z,73.60
2018-08-09T03:46:01.350Z,72.40
2018-08-09T03:48:30.473Z,72.40
2018-08-09T03:51:00.447Z,71.80
2018-08-09T03:53:29.592Z,71.60
2018-08-09T03:55:58.654Z,71.50
2018-08-09T03:58:27.687Z,71.10
2018-08-09T04:00:56.743Z,71.50
2018-08-09T04:03:25.757Z,72.30
2018-08-09T04:05:54.760Z,72.60
2018-08-09T04:08:23.796Z,72.80
2018-08-09T04:10:54.240Z,73.10
2018-08-09T04:13:23.391Z,73.40
2018-08-09T04:15:52.493Z,73.90
2018-08-09T04:18:21.537Z,74.30
2018-08-09T04:20:50.568Z,74.50
2018-08-09T04:23:19.655Z,74.50
2018-08-09T04:25:48.701Z,74.90
2018-08-09T04:28:17.770Z,74.30
2018-08-09T04:30:47.865Z,74.70
2018-08-09T04:33:16.895Z,74.20
2018-08-09T04:35:46.314Z,74.10
2018-08-09T04:38:15.698Z,73.80
2018-08-09T04:40:44.872Z,74.00
2018-08-09T04:43:14.045Z,74.00
2018-08-09T04:45:43.045Z,74.10
2018-08-09T04:48:13.053Z,75.40
2018-08-09T04:50:42.045Z,75.30
2018-08-09T04:53:11.226Z,74.70
2018-08-09T04:55:40.241Z,74.50
2018-08-09T04:58:09.356Z,75.90
2018-08-09T05:00:38.357Z,77.60
2018-08-09T05:03:07.949Z,77.70
2018-08-09T05:05:37.004Z,77.10
2018-08-09T05:08:06.134Z,76.30
2018-08-09T05:10:35.436Z,75.20
2018-08-09T05:13:04.591Z,75.50
2018-08-09T05:15:33.584Z,77.00
2018-08-09T05:18:02.990Z,74.10
2018-08-09T05:20:32.265Z,74.10
2018-08-09T05:23:01.310Z,76.40
2018-08-09T05:25:30.554Z,75.30
2018-08-09T05:27:59.552Z,74.20
2018-08-09T05:30:28.672Z,75.60
2018-08-09T05:32:57.661Z,75.70
2018-08-09T05:35:27.004Z,74.80
2018-08-09T05:37:56.049Z,75.70
2018-08-09T05:40:25.111Z,74.20
2018-08-09T05:42:54.167Z,77.10
2018-08-09T05:45:23.192Z,76.30
2018-08-09T05:47:52.193Z,76.80
2018-08-09T05:50:21.281Z,76.70
2018-08-09T05:52:50.407Z,74.40
2018-08-09T05:55:19.417Z,70.40
2018-08-09T05:57:48.453Z,70.10
2018-08-09T06:00:17.540Z,72.30
2018-08-09T06:02:46.577Z,72.70
2018-08-09T06:05:15.636Z,71.00
2018-08-09T06:07:44.666Z,70.20
2018-08-09T06:10:13.787Z,70.20
2018-08-09T06:12:42.903Z,71.10
2018-08-09T06:15:11.981Z,72.40
2018-08-09T06:17:41.248Z,72.60
2018-08-09T06:20:10.412Z,74.20
2018-08-09T06:22:39.430Z,74.60
2018-08-09T06:25:08.470Z,72.90
2018-08-09T06:27:37.457Z,72.60
2018-08-09T06:30:08.873Z,72.80
2018-08-09T06:32:38.654Z,73.30
2018-08-09T06:35:08.966Z,70.80
2018-08-09T06:37:38.277Z,69.80
2018-08-09T06:40:12.354Z,69.10
2018-08-09T06:42:42.866Z,62.40
2018-08-09T06:45:11.933Z,57.30
2018-08-09T06:47:41.251Z,54.30
2018-08-09T06:50:11.849Z,53.50
2018-08-09T06:52:40.941Z,53.00
2018-08-09T06:55:09.997Z,50.80
2018-08-09T06:57:39.054Z,49.70
2018-08-09T07:00:11.558Z,48.30
2018-08-09T07:02:40.681Z,47.70
2018-08-09T07:05:09.768Z,47.60
2018-08-09T07:07:39.521Z,45.60
2018-08-09T07:10:09.654Z,44.10
2018-08-09T07:12:38.791Z,43.10
2018-08-09T07:15:10.727Z,43.50
2018-08-09T07:17:40.309Z,44.80
2018-08-09T07:20:10.014Z,44.80
2018-08-09T07:22:40.160Z,44.90
2018-08-09T07:25:09.368Z,43.80
2018-08-09T07:27:38.988Z,43.00
2018-08-09T07:30:10.076Z,42.40
2018-08-09T07:32:39.365Z,42.20
2018-08-09T07:35:09.073Z,40.80
2018-08-09T07:37:38.108Z,38.60
2018-08-09T07:40:08.928Z,39.10
2018-08-09T07:42:38.013Z,39.90
2018-08-09T07:45:08.608Z,38.60
2018-08-09T07:47:37.821Z,37.20
2018-08-09T07:50:08.446Z,37.60
2018-08-09T07:52:37.524Z,36.20
2018-08-09T07:55:09.582Z,33.80
2018-08-09T07:57:39.217Z,34.00
2018-08-09T08:00:11.085Z,33.70
2018-08-09T08:02:40.473Z,34.40
2018-08-09T08:05:09.585Z,32.80
2018-08-09T08:07:38.842Z,31.90
2018-08-09T08:10:09.933Z,30.90
2018-08-09T08:12:39.106Z,33.10
2018-08-09T08:15:09.275Z,31.80
2018-08-09T08:17:38.288Z,31.80
2018-08-09T08:20:07.777Z,31.00
2018-08-09T08:22:36.793Z,30.00
2018-08-09T08:25:06.617Z,30.00
2018-08-09T08:27:35.710Z,30.10
2018-08-09T08:30:10.801Z,30.10
2018-08-09T08:32:40.660Z,31.90
2018-08-09T08:35:10.009Z,33.60
2018-08-09T08:37:39.432Z,34.50
2018-08-09T08:40:09.038Z,35.80
2018-08-09T08:42:38.460Z,37.30
2018-08-09T08:45:09.833Z,38.30
2018-08-09T08:47:38.881Z,40.20
2018-08-09T08:50:07.978Z,40.70
2018-08-09T08:52:37.054Z,41.60
2018-08-09T08:55:08.579Z,43.10
2018-08-09T08:57:37.734Z,42.40
2018-08-09T09:00:08.306Z,39.40
2018-08-09T09:02:37.764Z,36.30
2018-08-09T09:05:08.492Z,33.50
2018-08-09T09:07:38.361Z,30.60
2018-08-09T09:10:08.969Z,30.00
2018-08-09T09:12:38.067Z,29.10
2018-08-09T09:15:09.805Z,29.10
2018-08-09T09:17:39.021Z,29.70
2018-08-09T09:20:10.882Z,31.00
2018-08-09T09:22:39.872Z,33.90
2018-08-09T09:25:09.939Z,33.30
2018-08-09T09:27:39.223Z,34.00
2018-08-09T09:30:10.965Z,33.30
2018-08-09T09:32:40.033Z,32.60
2018-08-09T09:35:09.535Z,30.90
2018-08-09T09:37:38.817Z,30.20
2018-08-09T09:40:08.882Z,31.00
2018-08-09T09:42:39.731Z,31.00
2018-08-09T09:45:09.969Z,30.60
2018-08-09T09:47:39.141Z,31.80
2018-08-09T09:50:09.448Z,30.50
2018-08-09T09:52:39.038Z,29.60
2018-08-09T09:55:08.047Z,28.50
2018-08-09T09:57:37.544Z,28.40
2018-08-09T10:00:14.197Z,28.00
2018-08-09T10:02:43.744Z,27.60
2018-08-09T10:05:12.743Z,26.80
2018-08-09T10:07:41.733Z,27.70
2018-08-09T10:10:12.825Z,27.80
2018-08-09T10:12:43.757Z,28.40
2018-08-09T10:15:13.053Z,28.30
2018-08-09T10:17:42.801Z,30.70
2018-08-09T10:20:11.836Z,32.60
2018-08-09T10:22:40.817Z,34.70
2018-08-09T10:25:09.884Z,36.00
2018-08-09T10:27:39.053Z,36.60
2018-08-09T10:30:08.737Z,38.00
2018-08-09T10:32:38.032Z,39.10
2018-08-09T10:35:08.658Z,39.70
2018-08-09T10:37:37.693Z,40.10
2018-08-09T10:40:08.209Z,39.80
2018-08-09T10:42:37.280Z,40.40
2018-08-09T10:45:06.317Z,40.40
2018-08-09T10:47:35.373Z,40.50
2018-08-09T10:50:04.525Z,40.60
2018-08-09T10:52:33.588Z,41.10
2018-08-09T10:55:02.614Z,41.00
2018-08-09T10:57:31.632Z,41.20
2018-08-09T11:00:01.043Z,41.10
2018-08-09T11:02:30.061Z,40.80
2018-08-09T11:04:59.052Z,40.40
2018-08-09T11:07:28.085Z,38.40
2018-08-09T11:09:58.561Z,36.10
2018-08-09T11:12:27.784Z,33.90
2018-08-09T11:14:56.783Z,32.40
2018-08-09T11:17:25.760Z,31.50
2018-08-09T11:19:56.702Z,30.90
2018-08-09T11:22:25.781Z,32.30
2018-08-09T11:24:54.798Z,34.50
2018-08-09T11:27:23.897Z,36.20
2018-08-09T11:29:52.902Z,36.90
2018-08-09T11:32:21.922Z,37.50
2018-08-09T11:34:51.121Z,37.70
2018-08-09T11:37:20.271Z,39.00
2018-08-09T11:39:49.361Z,39.90
2018-08-09T11:42:18.366Z,40.20
2018-08-09T11:44:47.739Z,40.10
2018-08-09T11:47:16.783Z,40.80
2018-08-09T11:49:46.021Z,41.30
2018-08-09T11:52:15.014Z,41.90
2018-08-09T11:54:44.036Z,41.80
2018-08-09T11:57:13.122Z,42.10
2018-08-09T11:59:42.097Z,42.60
2018-08-09T12:02:11.181Z,42.40
2018-08-09T12:04:40.611Z,42.40
2018-08-09T12:07:09.854Z,42.60
2018-08-09T12:09:39.229Z,42.80
2018-08-09T12:12:08.398Z,43.10
2018-08-09T12:14:37.533Z,43.60
2018-08-09T12:17:06.580Z,44.00
2018-08-09T12:19:35.630Z,44.00
2018-08-09T12:22:04.761Z,44.00
2018-08-09T12:24:33.868Z,44.50
2018-08-09T12:27:03.093Z,45.10
2018-08-09T12:29:32.292Z,45.40
2018-08-09T12:32:01.371Z,45.90
2018-08-09T12:34:30.398Z,45.10
2018-08-09T12:37:00.458Z,43.80
2018-08-09T12:39:29.529Z,42.60
2018-08-09T12:41:58.622Z,43.30
2018-08-09T12:44:27.738Z,43.40
2018-08-09T12:46:56.806Z,43.20
2018-08-09T12:49:26.002Z,43.30
2018-08-09T12:51:55.225Z,43.60
2018-08-09T12:54:24.272Z,43.70
2018-08-09T12:56:53.310Z,44.40
2018-08-09T12:59:22.348Z,46.50
2018-08-09T13:01:51.885Z,47.90
2018-08-09T13:04:20.945Z,53.50
2018-08-09T13:06:49.965Z,55.30
2018-08-09T13:09:19.275Z,56.50
2018-08-09T13:11:48.317Z,57.10
2018-08-09T13:14:17.421Z,58.40
2018-08-09T13:16:46.798Z,59.10
2018-08-09T13:19:15.958Z,59.90
2018-08-09T13:21:45.013Z,60.40
2018-08-09T13:24:15.434Z,59.70
2018-08-09T13:26:44.533Z,60.00
2018-08-09T13:29:13.906Z,59.90
2018-08-09T13:31:42.973Z,59.80
2018-08-09T13:34:12.356Z,60.70
2018-08-09T13:36:41.381Z,59.80
2018-08-09T13:39:12.816Z,58.30
2018-08-09T13:41:43.016Z,57.30
2018-08-09T13:44:12.475Z,56.30
2018-08-09T13:46:41.576Z,55.70
2018-08-09T13:49:11.743Z,55.90
2018-08-09T13:51:40.797Z,55.70
2018-08-09T13:54:09.904Z,55.60
2018-08-09T13:56:39.348Z,55.70
2018-08-09T13:59:08.400Z,55.90
2018-08-09T14:01:37.434Z,55.80
2018-08-09T14:04:06.576Z,55.70
2018-08-09T14:06:37.614Z,55.90
2018-08-09T14:09:10.393Z,55.90
2018-08-09T14:11:39.700Z,55.60
2018-08-09T14:14:08.780Z,55.70
2018-08-09T14:16:38.518Z,55.70
2018-08-09T14:19:07.838Z,55.30
2018-08-09T14:21:37.024Z,55.10
2018-08-09T14:24:06.625Z,54.80
2018-08-09T14:26:35.752Z,54.30
2018-08-09T14:29:05.919Z,54.30
2018-08-09T14:31:35.000Z,53.50
2018-08-09T14:34:04.111Z,52.90
2018-08-09T14:36:33.212Z,52.80
2018-08-09T14:39:03.657Z,52.20
2018-08-09T14:41:32.763Z,51.80
2018-08-09T14:44:01.801Z,51.60
2018-08-09T14:46:31.901Z,51.70
2018-08-09T14:49:00.986Z,52.10
2018-08-09T14:51:29.969Z,52.60
2018-08-09T14:53:59.504Z,52.50
2018-08-09T14:56:30.241Z,52.80
2018-08-09T14:58:59.328Z,53.10
2018-08-09T15:01:28.332Z,52.90
2018-08-09T15:03:57.380Z,53.00
2018-08-09T15:06:26.430Z,53.10
2018-08-09T15:08:55.496Z,53.20
2018-08-09T15:11:24.771Z,53.20
2018-08-09T15:13:53.927Z,53.40
2018-08-09T15:16:23.317Z,53.20
2018-08-09T15:18:52.478Z,53.30
2018-08-09T15:21:21.606Z,53.20
2018-08-09T15:23:50.633Z,54.00
2018-08-09T15:26:19.684Z,53.30
2018-08-09T15:28:49.026Z,53.80
2018-08-09T15:31:18.067Z,53.60
2018-08-09T15:33:47.918Z,52.90
2018-08-09T15:36:16.973Z,52.30
2018-08-09T15:38:46.008Z,52.50
2018-08-09T15:41:15.109Z,52.30
2018-08-09T15:43:44.174Z,52.20
2018-08-09T15:46:13.852Z,52.30
2018-08-09T15:48:42.869Z,52.60
2018-08-09T15:51:11.964Z,52.60
2018-08-09T15:53:41.037Z,53.50
2018-08-09T15:56:10.797Z,53.00
2018-08-09T15:58:39.882Z,53.20
2018-08-09T16:01:10.518Z,53.10
2018-08-09T16:03:39.541Z,53.10
2018-08-09T16:06:08.625Z,52.90
2018-08-09T16:08:37.676Z,52.80
2018-08-09T16:11:07.536Z,52.90
2018-08-09T16:13:36.597Z,53.20
2018-08-09T16:16:05.796Z,53.70
2018-08-09T16:18:35.069Z,53.60
2018-08-09T16:21:04.113Z,54.10
2018-08-09T16:23:33.372Z,54.30
2018-08-09T16:26:02.499Z,54.10
2018-08-09T16:28:31.705Z,54.30
2018-08-09T16:31:00.802Z,53.50
2018-08-09T16:33:29.854Z,53.10
2018-08-09T16:36:00.363Z,52.00
2018-08-09T16:38:29.462Z,50.40
2018-08-09T16:40:58.528Z,50.00
2018-08-09T16:43:27.879Z,50.30
2018-08-09T16:45:56.949Z,50.50
2018-08-09T16:48:25.989Z,51.50
2018-08-09T16:50:55.093Z,50.80
2018-08-09T16:53:24.116Z,51.60
2018-08-09T16:55:53.196Z,51.10
2018-08-09T16:58:22.449Z,51.60
2018-08-09T17:00:51.522Z,51.90
2018-08-09T17:03:20.672Z,51.80
2018-08-09T17:05:49.759Z,52.00
2018-08-09T17:08:18.769Z,52.40
2018-08-09T17:10:47.849Z,52.80
2018-08-09T17:13:16.956Z,52.50
2018-08-09T17:15:46.041Z,52.70
2018-08-09T17:18:15.129Z,52.90
2018-08-09T17:20:44.162Z,52.20
2018-08-09T17:23:13.318Z,52.20
2018-08-09T17:25:42.389Z,51.90
2018-08-09T17:28:11.491Z,52.30
2018-08-09T17:30:42.533Z,52.30
2018-08-09T17:33:11.628Z,52.40
2018-08-09T17:35:40.724Z,52.70
2018-08-09T17:38:11.450Z,52.70
2018-08-09T17:40:40.514Z,52.70
2018-08-09T17:43:09.570Z,52.70
2018-08-09T17:45:38.673Z,53.00
2018-08-09T17:48:07.729Z,53.30
2018-08-09T17:50:36.770Z,53.40
2018-08-09T17:53:08.269Z,53.10
2018-08-09T17:55:37.350Z,53.20
2018-08-09T17:58:06.361Z,53.30
2018-08-09T18:00:36.184Z,53.70
2018-08-09T18:03:05.506Z,53.80
2018-08-09T18:05:35.974Z,54.10
2018-08-09T18:08:05.513Z,54.40
2018-08-09T18:10:35.687Z,54.80
2018-08-09T18:13:04.798Z,54.90
2018-08-09T18:15:33.884Z,55.40
2018-08-09T18:18:03.410Z,55.60
2018-08-09T18:20:34.173Z,56.00
2018-08-09T18:23:04.897Z,55.30
2018-08-09T18:25:33.985Z,54.20
2018-08-09T18:28:03.154Z,53.80
2018-08-09T18:30:32.373Z,54.70
2018-08-09T18:33:01.445Z,54.90
2018-08-09T18:35:30.549Z,55.20
2018-08-09T18:37:59.885Z,55.90
2018-08-09T18:40:29.381Z,56.00
2018-08-09T18:43:00.425Z,56.40
2018-08-09T18:45:29.462Z,56.60
2018-08-09T18:47:58.477Z,57.10
2018-08-09T18:50:29.658Z,57.20
2018-08-09T18:52:58.752Z,57.20
2018-08-09T18:55:27.812Z,57.40
2018-08-09T18:57:56.873Z,57.60
2018-08-09T19:00:27.664Z,57.70
2018-08-09T19:02:56.904Z,57.90
2018-08-09T19:05:26.286Z,57.70
2018-08-09T19:07:56.837Z,58.00
2018-08-09T19:10:27.800Z,58.10
2018-08-09T19:12:56.872Z,58.60
2018-08-09T19:15:27.821Z,58.70
2018-08-09T19:17:57.297Z,59.00
2018-08-09T19:20:28.734Z,59.20
2018-08-09T19:22:59.639Z,59.10
2018-08-09T19:25:28.701Z,59.20
2018-08-09T19:27:57.961Z,58.50
2018-08-09T19:30:28.621Z,58.20
2018-08-09T19:32:57.858Z,57.10
2018-08-09T19:35:26.906Z,55.90
2018-08-09T19:37:56.033Z,55.40
2018-08-09T19:40:27.563Z,55.60
2018-08-09T19:42:56.633Z,55.30
2018-08-09T19:45:25.722Z,55.10
2018-08-09T19:47:54.861Z,56.20
2018-08-09T19:50:25.198Z,55.40
2018-08-09T19:52:59.995Z,55.70
2018-08-09T19:55:29.103Z,56.50
2018-08-09T19:57:58.159Z,56.50
2018-08-09T20:00:29.393Z,56.70
2018-08-09T20:02:58.457Z,56.80
2018-08-09T20:05:27.513Z,56.90
2018-08-09T20:07:57.122Z,56.90
2018-08-09T20:10:26.206Z,57.20
2018-08-09T20:12:55.334Z,57.90
2018-08-09T20:15:24.825Z,56.80
2018-08-09T20:17:53.843Z,57.10
2018-08-09T20:20:24.473Z,57.50
2018-08-09T20:22:53.649Z,57.50
2018-08-09T20:25:22.679Z,57.50
2018-08-09T20:27:51.741Z,57.70
2018-08-09T20:30:20.831Z,58.00
2018-08-09T20:32:49.985Z,58.00
2018-08-09T20:35:20.825Z,57.60
2018-08-09T20:37:50.296Z,57.70
2018-08-09T20:40:20.321Z,57.50
2018-08-09T20:42:50.452Z,57.40
2018-08-09T20:45:20.801Z,57.80
2018-08-09T20:47:49.885Z,57.60
2018-08-09T20:50:20.527Z,57.10
2018-08-09T20:52:50.175Z,56.60
2018-08-09T20:55:19.259Z,57.70
2018-08-09T20:57:49.199Z,57.40
2018-08-09T21:00:20.448Z,57.30
2018-08-09T21:02:50.821Z,57.10
2018-08-09T21:05:28.036Z,57.30
2018-08-09T21:07:57.364Z,57.10
2018-08-09T21:10:26.893Z,56.80
2018-08-09T21:12:56.018Z,57.50
2018-08-09T21:15:25.187Z,58.10
2018-08-09T21:18:30.898Z,57.10
2018-08-09T21:21:00.341Z,57.30
2018-08-09T21:23:29.405Z,57.10
2018-08-09T21:25:58.449Z,58.20
2018-08-09T21:28:27.509Z,58.10
2018-08-09T21:30:56.564Z,58.60
2018-08-09T21:33:25.616Z,58.10
2018-08-09T21:35:54.625Z,58.60
2018-08-09T21:38:23.652Z,58.50
2018-08-09T21:40:52.831Z,59.10
2018-08-09T21:43:21.825Z,59.30
2018-08-09T21:45:51.034Z,59.50
2018-08-09T21:48:20.067Z,58.60
2018-08-09T21:50:49.126Z,58.80
2018-08-09T21:53:18.196Z,58.50
2018-08-09T21:55:47.293Z,58.30
2018-08-09T21:58:16.389Z,58.30
2018-08-09T22:00:51.884Z,58.60
2018-08-09T22:03:26.157Z,58.70
2018-08-09T22:06:00.596Z,58.90
2018-08-09T22:08:34.948Z,58.70
2018-08-09T22:11:09.501Z,59.30
2018-08-09T22:13:43.915Z,58.90
2018-08-09T22:16:18.357Z,58.60
2018-08-09T22:18:52.968Z,59.20
2018-08-09T22:21:27.156Z,58.80
2018-08-09T22:23:56.241Z,58.50
2018-08-09T22:26:25.317Z,59.50
2018-08-09T22:28:54.368Z,59.30
2018-08-09T22:31:23.433Z,59.70
2018-08-09T22:33:52.529Z,58.40
2018-08-09T22:36:21.618Z,59.20
2018-08-09T22:38:50.953Z,58.60
2018-08-09T22:41:20.014Z,58.90
2018-08-09T22:43:49.057Z,59.10
2018-08-09T22:46:18.488Z,59.70
2018-08-09T22:48:47.555Z,60.40
2018-08-09T22:51:16.552Z,59.40
2018-08-09T22:53:45.610Z,59.60
2018-08-09T22:56:14.698Z,60.10
2018-08-09T22:58:43.784Z,60.70
2018-08-09T23:01:12.818Z,60.40
2018-08-09T23:03:41.920Z,61.40
2018-08-09T23:06:11.006Z,60.00
2018-08-09T23:08:40.137Z,59.70
2018-08-09T23:11:09.162Z,59.40
2018-08-09T23:13:38.213Z,59.60
2018-08-09T23:16:07.297Z,59.70
2018-08-09T23:18:36.359Z,59.60
2018-08-09T23:21:05.411Z,60.70
2018-08-09T23:23:34.520Z,60.30
2018-08-09T23:26:03.561Z,60.30
2018-08-09T23:28:32.952Z,60.90
2018-08-09T23:31:01.946Z,62.30
2018-08-09T23:33:30.962Z,65.10
2018-08-09T23:36:00.102Z,67.50
2018-08-09T23:38:29.152Z,72.20
2018-08-09T23:40:58.168Z,74.20
2018-08-09T23:43:27.213Z,75.80
2018-08-09T23:45:56.230Z,76.90
2018-08-09T23:48:25.302Z,77.50
2018-08-09T23:50:54.376Z,78.40
2018-08-09T23:53:23.677Z,78.90
2018-08-09T23:55:52.665Z,79.40
2018-08-09T23:58:21.704Z,79.30
